createdAt,value
2017-12-20T00:00:45.941Z,10.6
2017-12-20T00:01:48.431Z,10.6
2017-12-20T00:02:50.932Z,10.6
2017-12-20T00:03:53.430Z,10.6
2017-12-20T00:04:56.238Z,10.6
2017-12-20T00:05:58.754Z,10.6
2017-12-20T00:07:01.236Z,10.6
2017-12-20T00:08:03.742Z,10.6
2017-12-20T00:09:06.239Z,10.6
2017-12-20T00:10:08.728Z,10.6
2017-12-20T00:11:11.223Z,10.6
2017-12-20T00:12:13.713Z,10.6
2017-12-20T00:13:16.205Z,10.6
2017-12-20T00:14:18.707Z,10.6
2017-12-20T00:15:21.184Z,10.5
2017-12-20T00:16:23.676Z,10.5
2017-12-20T00:17:26.173Z,10.5
2017-12-20T00:18:28.960Z,10.5
2017-12-20T00:19:31.460Z,10.5
2017-12-20T00:20:33.956Z,10.5
2017-12-20T00:21:36.437Z,10.5
2017-12-20T00:22:38.937Z,10.4
2017-12-20T00:23:41.430Z,10.4
2017-12-20T00:24:43.911Z,10.4
2017-12-20T00:25:46.411Z,10.3
2017-12-20T00:26:48.892Z,10.3
2017-12-20T00:27:51.385Z,10.3
2017-12-20T00:28:53.884Z,10.3
2017-12-20T00:29:56.361Z,10.3
2017-12-20T00:30:58.856Z,10.3
2017-12-20T00:32:01.344Z,10.3
2017-12-20T00:33:04.125Z,10.3
2017-12-20T00:34:06.922Z,10.3
2017-12-20T00:35:09.730Z,10.3
2017-12-20T00:36:12.221Z,10.4
2017-12-20T00:37:14.712Z,10.4
2017-12-20T00:38:17.201Z,10.4
2017-12-20T00:39:19.698Z,10.4
2017-12-20T00:40:22.181Z,10.4
2017-12-20T00:41:24.683Z,10.4
2017-12-20T00:42:27.168Z,10.4
2017-12-20T00:43:29.674Z,10.4
2017-12-20T00:44:32.170Z,10.5
2017-12-20T00:45:34.667Z,10.5
2017-12-20T00:46:37.160Z,10.5
2017-12-20T00:47:39.664Z,10.4
2017-12-20T00:48:42.142Z,10.5
2017-12-20T00:49:44.637Z,10.5
2017-12-20T00:50:47.132Z,10.5
2017-12-20T00:51:49.638Z,10.5
2017-12-20T00:52:52.434Z,10.5
2017-12-20T00:53:54.920Z,10.5
2017-12-20T00:54:57.409Z,10.4
2017-12-20T00:56:00.203Z,10.4
2017-12-20T00:57:02.983Z,10.4
2017-12-20T00:58:05.772Z,10.4
2017-12-20T00:59:08.259Z,10.4
2017-12-20T01:00:11.330Z,10.4
2017-12-20T01:01:14.109Z,10.3
2017-12-20T01:02:16.613Z,10.3
2017-12-20T01:03:19.091Z,10.2
2017-12-20T01:04:21.585Z,10.2
2017-12-20T01:05:24.079Z,10.1
2017-12-20T01:06:26.571Z,10.1
2017-12-20T01:07:29.060Z,10.1
2017-12-20T01:08:31.559Z,10.1
2017-12-20T01:09:34.351Z,10.1
2017-12-20T01:10:37.123Z,10.1
2017-12-20T01:11:39.621Z,10
2017-12-20T01:12:42.117Z,10
2017-12-20T01:13:44.604Z,10
2017-12-20T01:14:47.091Z,10
2017-12-20T01:15:49.588Z,10
2017-12-20T01:16:52.083Z,10
2017-12-20T01:17:54.574Z,9.9
2017-12-20T01:18:57.071Z,9.9
2017-12-20T01:19:59.543Z,9.9
2017-12-20T01:21:02.340Z,9.9
2017-12-20T01:22:04.834Z,9.9
2017-12-20T01:23:07.327Z,9.9
2017-12-20T01:24:09.829Z,9.9
2017-12-20T01:25:12.312Z,9.9
2017-12-20T01:26:14.802Z,9.9
2017-12-20T01:27:17.311Z,9.9
2017-12-20T01:28:19.793Z,9.9
2017-12-20T01:29:22.279Z,9.9
2017-12-20T01:30:24.772Z,9.9
2017-12-20T01:31:27.254Z,9.9
2017-12-20T01:32:29.754Z,9.9
2017-12-20T01:33:32.245Z,9.9
2017-12-20T01:34:34.725Z,9.9
2017-12-20T01:35:37.216Z,9.9
2017-12-20T01:36:40.011Z,9.9
2017-12-20T01:37:42.505Z,9.9
2017-12-20T01:38:44.985Z,9.9
2017-12-20T01:39:47.471Z,9.8
2017-12-20T01:40:49.967Z,9.8
2017-12-20T01:41:52.464Z,9.8
2017-12-20T01:42:55.540Z,9.8
2017-12-20T01:43:58.020Z,9.8
2017-12-20T01:45:00.507Z,9.8
2017-12-20T01:46:03.021Z,9.8
2017-12-20T01:47:05.512Z,9.8
2017-12-20T01:48:08.007Z,9.8
2017-12-20T01:49:10.494Z,9.8
2017-12-20T01:50:12.982Z,9.8
2017-12-20T01:51:15.489Z,9.8
2017-12-20T01:52:17.983Z,9.8
2017-12-20T01:53:20.456Z,9.8
2017-12-20T01:54:22.950Z,9.8
2017-12-20T01:55:25.440Z,9.9
2017-12-20T01:56:27.934Z,9.8
2017-12-20T01:57:30.428Z,9.8
2017-12-20T01:58:33.197Z,9.8
2017-12-20T01:59:35.977Z,9.8
2017-12-20T02:00:38.484Z,9.9
2017-12-20T02:01:41.289Z,9.9
2017-12-20T02:02:43.775Z,9.9
2017-12-20T02:03:46.264Z,9.9
2017-12-20T02:04:48.764Z,9.9
2017-12-20T02:05:51.248Z,9.9
2017-12-20T02:06:53.741Z,9.9
2017-12-20T02:07:56.238Z,9.9
2017-12-20T02:08:58.727Z,9.9
2017-12-20T02:10:01.510Z,9.9
2017-12-20T02:11:03.998Z,9.9
2017-12-20T02:12:06.502Z,9.8
2017-12-20T02:13:08.987Z,9.8
2017-12-20T02:14:11.480Z,9.8
2017-12-20T02:15:13.972Z,9.8
2017-12-20T02:16:16.460Z,9.8
2017-12-20T02:17:19.247Z,9.8
2017-12-20T02:18:22.054Z,9.8
2017-12-20T02:19:24.522Z,9.8
2017-12-20T02:20:27.022Z,9.8
2017-12-20T02:21:29.517Z,9.8
2017-12-20T02:22:32.298Z,9.8
2017-12-20T02:23:34.784Z,9.8
2017-12-20T02:24:37.277Z,9.8
2017-12-20T02:25:40.080Z,9.8
2017-12-20T02:26:42.586Z,9.7
2017-12-20T02:27:45.073Z,9.7
2017-12-20T02:28:47.858Z,9.7
2017-12-20T02:29:50.348Z,9.7
2017-12-20T02:30:52.837Z,9.7
2017-12-20T02:31:55.631Z,9.7
2017-12-20T02:32:58.118Z,9.7
2017-12-20T02:34:00.596Z,9.7
2017-12-20T02:35:03.399Z,9.7
2017-12-20T02:36:05.901Z,9.7
2017-12-20T02:37:08.391Z,9.6
2017-12-20T02:38:10.874Z,9.7
2017-12-20T02:39:13.698Z,9.7
2017-12-20T02:40:16.190Z,9.7
2017-12-20T02:41:19.011Z,9.7
2017-12-20T02:42:21.507Z,9.7
2017-12-20T02:43:23.982Z,9.8
2017-12-20T02:44:26.474Z,9.8
2017-12-20T02:45:28.968Z,9.8
2017-12-20T02:46:31.450Z,9.8
2017-12-20T02:47:33.949Z,9.8
2017-12-20T02:48:36.432Z,9.8
2017-12-20T02:49:38.920Z,9.8
2017-12-20T02:50:41.419Z,9.8
2017-12-20T02:51:43.911Z,9.8
2017-12-20T02:52:46.380Z,9.8
2017-12-20T02:53:49.175Z,9.8
2017-12-20T02:54:51.678Z,9.8
2017-12-20T02:55:54.171Z,9.8
2017-12-20T02:56:56.661Z,9.9
2017-12-20T02:57:59.437Z,9.9
2017-12-20T02:59:01.927Z,9.9
2017-12-20T03:00:04.433Z,9.9
2017-12-20T03:01:06.924Z,9.8
2017-12-20T03:02:09.397Z,9.8
2017-12-20T03:03:12.200Z,9.8
2017-12-20T03:04:14.693Z,9.8
2017-12-20T03:05:17.171Z,9.8
2017-12-20T03:06:19.663Z,9.7
2017-12-20T03:07:22.171Z,9.8
2017-12-20T03:08:24.946Z,9.7
2017-12-20T03:09:27.444Z,9.7
2017-12-20T03:10:29.933Z,9.7
2017-12-20T03:11:32.429Z,9.7
2017-12-20T03:12:34.925Z,9.7
2017-12-20T03:13:37.418Z,9.7
2017-12-20T03:14:39.891Z,9.7
2017-12-20T03:15:42.389Z,9.7
2017-12-20T03:16:44.882Z,9.7
2017-12-20T03:17:47.372Z,9.6
2017-12-20T03:18:49.868Z,9.6
2017-12-20T03:19:52.358Z,9.6
2017-12-20T03:20:54.848Z,9.6
2017-12-20T03:21:57.335Z,9.5
2017-12-20T03:22:59.829Z,9.5
2017-12-20T03:24:02.321Z,9.5
2017-12-20T03:25:04.804Z,9.5
2017-12-20T03:26:07.308Z,9.6
2017-12-20T03:27:10.093Z,9.6
2017-12-20T03:28:12.594Z,9.5
2017-12-20T03:29:15.365Z,9.5
2017-12-20T03:30:17.898Z,9.5
2017-12-20T03:31:20.647Z,9.5
2017-12-20T03:32:23.145Z,9.5
2017-12-20T03:33:25.630Z,9.5
2017-12-20T03:34:28.421Z,9.5
2017-12-20T03:35:31.501Z,9.5
2017-12-20T03:36:33.995Z,9.5
2017-12-20T03:37:36.797Z,9.5
2017-12-20T03:38:39.300Z,9.5
2017-12-20T03:39:41.794Z,9.6
2017-12-20T03:40:44.269Z,9.6
2017-12-20T03:41:46.775Z,9.6
2017-12-20T03:42:49.247Z,9.6
2017-12-20T03:43:51.741Z,9.6
2017-12-20T03:44:54.227Z,9.6
2017-12-20T03:45:56.714Z,9.6
2017-12-20T03:46:59.203Z,9.6
2017-12-20T03:48:02.004Z,9.6
2017-12-20T03:49:04.479Z,9.5
2017-12-20T03:50:06.983Z,9.6
2017-12-20T03:51:09.465Z,9.5
2017-12-20T03:52:11.955Z,9.5
2017-12-20T03:53:14.444Z,9.5
2017-12-20T03:54:16.937Z,9.5
2017-12-20T03:55:19.431Z,9.5
2017-12-20T03:56:21.921Z,9.5
2017-12-20T03:57:24.692Z,9.5
2017-12-20T03:58:27.195Z,9.5
2017-12-20T03:59:29.683Z,9.5
2017-12-20T04:00:32.183Z,9.6
2017-12-20T04:01:34.666Z,9.5
2017-12-20T04:02:37.161Z,9.6
2017-12-20T04:03:39.664Z,9.5
2017-12-20T04:04:42.156Z,9.6
2017-12-20T04:05:44.636Z,9.5
2017-12-20T04:06:47.424Z,9.6
2017-12-20T04:07:49.913Z,9.6
2017-12-20T04:08:52.402Z,9.6
2017-12-20T04:09:54.892Z,9.6
2017-12-20T04:10:57.386Z,9.5
2017-12-20T04:12:00.406Z,9.6
2017-12-20T04:13:03.506Z,9.5
2017-12-20T04:14:05.979Z,9.5
2017-12-20T04:15:08.474Z,9.5
2017-12-20T04:16:10.972Z,9.5
2017-12-20T04:17:13.461Z,9.5
2017-12-20T04:18:16.564Z,9.5
2017-12-20T04:19:19.058Z,9.5
2017-12-20T04:20:21.544Z,9.5
2017-12-20T04:21:24.332Z,9.5
2017-12-20T04:22:26.808Z,9.5
2017-12-20T04:23:29.283Z,9.5
2017-12-20T04:24:31.774Z,9.6
2017-12-20T04:25:34.281Z,9.6
2017-12-20T04:26:36.764Z,9.6
2017-12-20T04:27:39.259Z,9.7
2017-12-20T04:28:41.751Z,9.7
2017-12-20T04:29:44.254Z,9.7
2017-12-20T04:30:46.756Z,9.7
2017-12-20T04:31:49.249Z,9.8
2017-12-20T04:32:51.732Z,9.8
2017-12-20T04:33:54.231Z,9.8
2017-12-20T04:34:57.043Z,9.8
2017-12-20T04:35:59.533Z,9.7
2017-12-20T04:37:02.018Z,9.7
2017-12-20T04:38:04.508Z,9.7
2017-12-20T04:39:06.994Z,9.7
2017-12-20T04:40:09.492Z,9.7
2017-12-20T04:41:11.973Z,9.7
2017-12-20T04:42:14.463Z,9.8
2017-12-20T04:43:17.240Z,9.8
2017-12-20T04:44:19.727Z,9.8
2017-12-20T04:45:22.216Z,9.8
2017-12-20T04:46:24.715Z,9.8
2017-12-20T04:47:27.204Z,9.8
2017-12-20T04:48:29.712Z,9.8
2017-12-20T04:49:32.191Z,9.8
2017-12-20T04:50:34.680Z,9.7
2017-12-20T04:51:37.181Z,9.7
2017-12-20T04:52:39.668Z,9.7
2017-12-20T04:53:42.465Z,9.7
2017-12-20T04:54:44.963Z,9.7
2017-12-20T04:55:47.447Z,9.7
2017-12-20T04:56:49.957Z,9.7
2017-12-20T04:57:52.451Z,9.7
2017-12-20T04:58:54.927Z,9.7
2017-12-20T04:59:57.429Z,9.7
2017-12-20T05:00:59.956Z,9.7
2017-12-20T05:02:02.707Z,9.7
2017-12-20T05:03:05.188Z,9.7
2017-12-20T05:04:07.698Z,9.7
2017-12-20T05:05:10.204Z,9.7
2017-12-20T05:06:12.673Z,9.7
2017-12-20T05:07:15.167Z,9.7
2017-12-20T05:08:17.654Z,9.8
2017-12-20T05:09:20.146Z,9.8
2017-12-20T05:10:22.645Z,9.8
2017-12-20T05:11:25.127Z,9.8
2017-12-20T05:12:27.618Z,9.8
2017-12-20T05:13:30.409Z,9.8
2017-12-20T05:14:32.897Z,9.8
2017-12-20T05:15:35.382Z,9.8
2017-12-20T05:16:37.875Z,9.8
2017-12-20T05:17:40.363Z,9.9
2017-12-20T05:18:42.858Z,9.8
2017-12-20T05:19:45.353Z,9.9
2017-12-20T05:20:47.837Z,9.8
2017-12-20T05:21:50.329Z,9.8
2017-12-20T05:22:52.834Z,9.8
2017-12-20T05:23:55.328Z,9.8
2017-12-20T05:24:57.815Z,9.8
2017-12-20T05:26:00.608Z,9.8
2017-12-20T05:27:03.101Z,9.8
2017-12-20T05:28:05.598Z,9.9
2017-12-20T05:29:08.094Z,9.9
2017-12-20T05:30:10.571Z,9.9
2017-12-20T05:31:13.064Z,9.9
2017-12-20T05:32:15.564Z,9.9
2017-12-20T05:33:18.046Z,9.9
2017-12-20T05:34:20.536Z,9.9
2017-12-20T05:35:23.032Z,9.9
2017-12-20T05:36:25.824Z,9.9
2017-12-20T05:37:28.299Z,10
2017-12-20T05:38:30.796Z,10
2017-12-20T05:39:33.294Z,10
2017-12-20T05:40:36.372Z,10
2017-12-20T05:41:38.869Z,10
2017-12-20T05:42:41.365Z,10
2017-12-20T05:43:43.858Z,10
2017-12-20T05:44:46.361Z,10
2017-12-20T05:45:48.850Z,10
2017-12-20T05:46:51.328Z,10
2017-12-20T05:47:53.822Z,10
2017-12-20T05:48:56.315Z,10
2017-12-20T05:49:59.114Z,10
2017-12-20T05:51:01.612Z,10
2017-12-20T05:52:04.105Z,10
2017-12-20T05:53:06.910Z,10
2017-12-20T05:54:09.704Z,10
2017-12-20T05:55:12.189Z,10
2017-12-20T05:56:14.685Z,10
2017-12-20T05:57:17.473Z,10
2017-12-20T05:58:19.955Z,10
2017-12-20T05:59:22.450Z,10
2017-12-20T06:00:24.931Z,10
2017-12-20T06:01:27.418Z,10.1
2017-12-20T06:02:29.901Z,10.1
2017-12-20T06:03:32.700Z,10.1
2017-12-20T06:04:35.189Z,10.1
2017-12-20T06:05:37.685Z,10.1
2017-12-20T06:06:40.176Z,10.1
2017-12-20T06:07:42.671Z,10.1
2017-12-20T06:08:45.153Z,10.1
2017-12-20T06:09:47.661Z,10.1
2017-12-20T06:10:50.430Z,10.1
2017-12-20T06:11:53.218Z,10.2
2017-12-20T06:12:56.342Z,10.2
2017-12-20T06:13:58.971Z,10.2
2017-12-20T06:15:01.459Z,10.2
2017-12-20T06:16:03.956Z,10.2
2017-12-20T06:17:06.442Z,10.2
2017-12-20T06:18:08.947Z,10.3
2017-12-20T06:19:11.436Z,10.2
2017-12-20T06:20:13.928Z,10.3
2017-12-20T06:21:21.875Z,10.3
2017-12-20T06:22:33.465Z,10.3
2017-12-20T06:23:42.246Z,10.3
2017-12-20T06:24:48.468Z,10.3
2017-12-20T06:26:04.837Z,10.3
2017-12-20T06:27:16.530Z,10.3
2017-12-20T06:28:23.557Z,10.3
2017-12-20T06:30:00.054Z,10.3
2017-12-20T06:31:10.465Z,10.3
2017-12-20T06:32:18.585Z,10.3
2017-12-20T06:33:24.930Z,10.3
2017-12-20T06:34:45.799Z,10.3
2017-12-20T06:35:50.370Z,10.3
2017-12-20T06:36:55.603Z,10.3
2017-12-20T06:38:01.302Z,10.4
2017-12-20T06:39:09.650Z,10.4
2017-12-20T06:40:23.141Z,10.4
2017-12-20T06:41:27.163Z,10.4
2017-12-20T06:42:30.952Z,10.5
2017-12-20T06:43:35.036Z,10.5
2017-12-20T06:44:41.230Z,10.5
2017-12-20T06:46:05.880Z,10.5
2017-12-20T06:47:14.611Z,10.5
2017-12-20T06:48:21.587Z,10.6
2017-12-20T06:49:33.418Z,10.6
2017-12-20T06:50:37.964Z,10.6
2017-12-20T06:51:43.690Z,10.7
2017-12-20T06:52:48.324Z,10.7
2017-12-20T06:53:53.444Z,10.7
2017-12-20T06:54:57.001Z,10.7
2017-12-20T06:56:01.536Z,10.7
2017-12-20T06:57:04.423Z,10.7
2017-12-20T06:58:06.952Z,10.7
2017-12-20T06:59:09.448Z,10.7
2017-12-20T07:00:11.948Z,10.7
2017-12-20T07:01:14.737Z,10.7
2017-12-20T07:02:17.219Z,10.7
2017-12-20T07:03:19.717Z,10.7
2017-12-20T07:04:22.209Z,10.7
2017-12-20T07:05:24.709Z,10.7
2017-12-20T07:06:29.611Z,10.7
2017-12-20T07:07:39.275Z,10.7
2017-12-20T07:08:43.605Z,10.6
2017-12-20T07:09:48.829Z,10.6
2017-12-20T07:10:55.985Z,10.6
2017-12-20T07:12:00.729Z,10.7
2017-12-20T07:13:03.972Z,10.6
2017-12-20T07:14:08.049Z,10.6
2017-12-20T07:15:12.440Z,10.7
2017-12-20T07:16:16.298Z,10.7
2017-12-20T07:17:20.058Z,10.7
2017-12-20T07:18:22.967Z,10.7
2017-12-20T07:19:26.148Z,10.7
2017-12-20T07:20:45.642Z,10.7
2017-12-20T07:22:02.918Z,10.8
2017-12-20T07:23:09.673Z,10.8
2017-12-20T07:24:13.280Z,10.8
2017-12-20T07:25:18.774Z,10.8
2017-12-20T07:26:31.331Z,10.9
2017-12-20T07:27:34.888Z,10.9
2017-12-20T07:28:40.716Z,10.9
2017-12-20T07:29:45.930Z,10.9
2017-12-20T07:30:52.544Z,10.9
2017-12-20T07:32:00.156Z,10.9
2017-12-20T07:33:08.933Z,10.9
2017-12-20T07:34:25.708Z,11
2017-12-20T07:35:48.201Z,11
2017-12-20T07:36:53.894Z,11.1
2017-12-20T07:37:57.457Z,11.1
2017-12-20T07:39:02.166Z,11.1
2017-12-20T07:40:05.600Z,11.1
2017-12-20T07:41:11.043Z,11.2
2017-12-20T07:42:15.592Z,11.2
2017-12-20T07:43:20.404Z,11.1
2017-12-20T07:44:24.299Z,11.1
2017-12-20T07:45:27.205Z,11.1
2017-12-20T07:46:32.122Z,11.1
2017-12-20T07:47:37.496Z,11
2017-12-20T07:48:43.210Z,11
2017-12-20T07:49:48.198Z,11
2017-12-20T07:50:53.256Z,11
2017-12-20T07:51:59.009Z,10.9
2017-12-20T07:53:03.577Z,10.9
2017-12-20T07:54:08.721Z,10.9
2017-12-20T07:55:13.580Z,10.9
2017-12-20T07:56:16.623Z,11
2017-12-20T07:57:22.288Z,11
2017-12-20T07:58:26.565Z,11
2017-12-20T07:59:29.736Z,11
2017-12-20T08:00:35.299Z,11
2017-12-20T08:01:40.568Z,11
2017-12-20T08:02:45.742Z,11
2017-12-20T08:03:49.138Z,10.9
2017-12-20T08:04:51.908Z,10.9
2017-12-20T08:05:54.403Z,10.9
2017-12-20T08:06:56.918Z,10.9
2017-12-20T08:07:59.416Z,10.9
2017-12-20T08:09:02.490Z,10.9
2017-12-20T08:10:04.979Z,10.9
2017-12-20T08:11:07.474Z,10.9
2017-12-20T08:12:09.975Z,10.9
2017-12-20T08:13:12.757Z,10.8
2017-12-20T08:14:15.263Z,10.9
2017-12-20T08:15:17.755Z,10.9
2017-12-20T08:16:20.247Z,10.9
2017-12-20T08:17:22.748Z,10.9
2017-12-20T08:18:25.237Z,10.9
2017-12-20T08:19:27.742Z,10.9
2017-12-20T08:20:30.238Z,10.9
2017-12-20T08:21:33.023Z,10.9
2017-12-20T08:22:35.563Z,10.9
2017-12-20T08:23:38.019Z,10.9
2017-12-20T08:24:41.075Z,10.9
2017-12-20T08:25:43.572Z,10.9
2017-12-20T08:26:46.065Z,10.9
2017-12-20T08:27:48.555Z,11
2017-12-20T08:28:51.058Z,11
2017-12-20T08:29:53.544Z,11.1
2017-12-20T08:30:56.039Z,11.1
2017-12-20T08:31:58.547Z,11.2
2017-12-20T08:33:01.041Z,11.2
2017-12-20T08:34:03.844Z,11.3
2017-12-20T08:35:06.338Z,11.3
2017-12-20T08:36:09.125Z,11.3
2017-12-20T08:37:11.623Z,11.4
2017-12-20T08:38:14.115Z,11.4
2017-12-20T08:39:16.610Z,11.4
2017-12-20T08:40:19.120Z,11.4
2017-12-20T08:41:21.899Z,11.4
2017-12-20T08:42:24.397Z,11.4
2017-12-20T08:43:26.878Z,11.4
2017-12-20T08:44:29.378Z,11.4
2017-12-20T08:45:31.870Z,11.4
2017-12-20T08:46:34.368Z,11.4
2017-12-20T08:47:36.850Z,11.5
2017-12-20T08:48:39.351Z,11.4
2017-12-20T08:49:42.135Z,11.5
2017-12-20T08:50:44.929Z,11.5
2017-12-20T08:51:47.451Z,11.5
2017-12-20T08:52:49.922Z,11.5
2017-12-20T08:53:52.413Z,11.5
2017-12-20T08:54:55.217Z,11.5
2017-12-20T08:55:57.704Z,11.5
2017-12-20T08:57:00.486Z,11.6
2017-12-20T08:58:02.983Z,11.6
2017-12-20T08:59:05.479Z,11.6
2017-12-20T09:00:07.975Z,11.6
2017-12-20T09:01:10.471Z,11.6
2017-12-20T09:02:12.962Z,11.6
2017-12-20T09:03:15.465Z,11.7
2017-12-20T09:04:17.957Z,11.7
2017-12-20T09:05:20.774Z,11.7
2017-12-20T09:06:23.550Z,11.7
2017-12-20T09:07:26.041Z,11.7
2017-12-20T09:08:28.546Z,11.7
2017-12-20T09:09:31.034Z,11.7
2017-12-20T09:10:33.868Z,11.7
2017-12-20T09:11:36.369Z,11.7
2017-12-20T09:12:38.861Z,11.7
2017-12-20T09:13:41.359Z,11.7
2017-12-20T09:14:43.853Z,11.7
2017-12-20T09:15:46.631Z,11.7
2017-12-20T09:16:49.437Z,11.7
2017-12-20T09:17:52.229Z,11.7
2017-12-20T09:18:54.727Z,11.7
2017-12-20T09:19:57.219Z,11.7
2017-12-20T09:20:59.714Z,11.8
2017-12-20T09:22:02.205Z,11.8
2017-12-20T09:23:04.998Z,11.9
2017-12-20T09:24:07.494Z,11.8
2017-12-20T09:25:10.568Z,11.9
2017-12-20T09:26:13.075Z,11.9
2017-12-20T09:27:15.562Z,11.9
2017-12-20T09:28:18.342Z,11.9
2017-12-20T09:29:20.847Z,11.9
2017-12-20T09:30:23.622Z,12
2017-12-20T09:31:26.409Z,12
2017-12-20T09:32:28.905Z,11.9
2017-12-20T09:33:31.394Z,11.9
2017-12-20T09:34:33.883Z,11.9
2017-12-20T09:35:36.384Z,11.9
2017-12-20T09:36:38.875Z,11.9
2017-12-20T09:37:41.369Z,11.9
2017-12-20T09:38:43.858Z,11.9
2017-12-20T09:39:46.358Z,11.9
2017-12-20T09:40:48.858Z,11.9
2017-12-20T09:41:51.643Z,11.9
2017-12-20T09:42:54.145Z,11.9
2017-12-20T09:43:56.638Z,11.9
2017-12-20T09:44:59.137Z,12
2017-12-20T09:46:01.929Z,12
2017-12-20T09:47:04.418Z,12
2017-12-20T09:48:06.916Z,12
2017-12-20T09:49:09.428Z,12
2017-12-20T09:50:11.952Z,12
2017-12-20T09:51:14.412Z,12
2017-12-20T09:52:16.911Z,12
2017-12-20T09:53:19.695Z,12
2017-12-20T09:54:22.207Z,12
2017-12-20T09:55:25.278Z,12.1
2017-12-20T09:56:27.765Z,12.1
2017-12-20T09:57:30.557Z,12.1
2017-12-20T09:58:33.045Z,12.1
2017-12-20T09:59:35.550Z,12.2
2017-12-20T10:00:38.055Z,12.2
2017-12-20T10:01:40.828Z,12.2
2017-12-20T10:02:43.323Z,12.3
2017-12-20T10:03:45.829Z,12.3
2017-12-20T10:04:48.319Z,12.3
2017-12-20T10:05:51.101Z,12.3
2017-12-20T10:06:53.595Z,12.4
2017-12-20T10:07:56.092Z,12.4
2017-12-20T10:08:58.589Z,12.4
2017-12-20T10:10:01.083Z,12.4
2017-12-20T10:11:03.588Z,12.4
2017-12-20T10:14:37.409Z,12.4
2017-12-20T10:15:37.242Z,12.4
2017-12-20T10:16:39.738Z,12.4
2017-12-20T10:17:42.230Z,12.4
2017-12-20T10:18:44.714Z,12.3
2017-12-20T10:19:47.206Z,12.3
2017-12-20T10:20:49.700Z,12.2
2017-12-20T10:21:52.214Z,12.2
2017-12-20T10:22:54.698Z,12.2
2017-12-20T10:23:57.206Z,12.2
2017-12-20T10:24:59.691Z,12.3
2017-12-20T10:26:02.182Z,12.3
2017-12-20T10:27:04.681Z,12.3
2017-12-20T10:28:07.179Z,12.3
2017-12-20T10:29:09.667Z,12.3
2017-12-20T10:30:12.160Z,12.3
2017-12-20T10:31:14.654Z,12.3
2017-12-20T10:32:17.184Z,12.2
2017-12-20T10:33:19.980Z,12.2
2017-12-20T10:34:22.483Z,12.2
2017-12-20T10:35:24.974Z,12.3
2017-12-20T10:36:27.473Z,12.3
2017-12-20T10:37:29.970Z,12.3
2017-12-20T10:38:32.461Z,12.3
2017-12-20T10:39:34.954Z,12.2
2017-12-20T10:40:37.446Z,12.2
2017-12-20T10:41:39.933Z,12.2
2017-12-20T10:42:42.436Z,12.2
2017-12-20T10:43:45.220Z,12.2
2017-12-20T10:44:47.717Z,12.2
2017-12-20T10:45:50.790Z,12.2
2017-12-20T10:46:53.289Z,12.2
2017-12-20T10:47:55.765Z,12.2
2017-12-20T10:48:58.262Z,12.2
2017-12-20T10:50:00.769Z,12.2
2017-12-20T10:51:03.262Z,12.2
2017-12-20T10:52:05.763Z,12.2
2017-12-20T10:53:08.541Z,12.2
2017-12-20T10:54:11.038Z,12.2
2017-12-20T10:55:13.840Z,12.2
2017-12-20T10:56:16.334Z,12.2
2017-12-20T10:57:19.124Z,12.2
2017-12-20T10:58:21.919Z,12.2
2017-12-20T10:59:24.422Z,12.2
2017-12-20T11:00:27.484Z,12.2
2017-12-20T11:01:30.587Z,12.2
2017-12-20T11:02:33.081Z,12.2
2017-12-20T11:03:35.866Z,12.2
2017-12-20T11:04:38.392Z,12.3
2017-12-20T11:05:40.887Z,12.3
2017-12-20T11:06:43.662Z,12.3
2017-12-20T11:07:46.164Z,12.4
2017-12-20T11:08:48.666Z,12.4
2017-12-20T11:09:51.154Z,12.4
2017-12-20T11:10:53.654Z,12.4
2017-12-20T11:11:56.142Z,12.4
2017-12-20T11:12:58.638Z,12.4
2017-12-20T11:14:01.147Z,12.4
2017-12-20T11:15:03.637Z,12.4
2017-12-20T11:16:06.130Z,12.5
2017-12-20T11:17:08.916Z,12.5
2017-12-20T11:18:11.419Z,12.5
2017-12-20T11:19:14.491Z,12.5
2017-12-20T11:20:16.989Z,12.5
2017-12-20T11:21:19.490Z,12.5
2017-12-20T11:22:22.265Z,12.6
2017-12-20T11:23:24.768Z,12.6
2017-12-20T11:24:27.267Z,12.6
2017-12-20T11:25:29.754Z,12.6
2017-12-20T11:26:32.258Z,12.6
2017-12-20T11:27:34.750Z,12.6
2017-12-20T11:28:37.251Z,12.6
2017-12-20T11:29:39.755Z,12.7
2017-12-20T11:30:42.238Z,12.6
2017-12-20T11:31:45.313Z,12.7
2017-12-20T11:32:47.820Z,12.7
2017-12-20T11:33:50.315Z,12.6
2017-12-20T11:34:53.120Z,12.6
2017-12-20T11:35:55.618Z,12.6
2017-12-20T11:36:58.109Z,12.7
2017-12-20T11:38:00.615Z,12.6
2017-12-20T11:39:03.116Z,12.7
2017-12-20T11:40:05.590Z,12.7
2017-12-20T11:41:08.092Z,12.7
2017-12-20T11:42:10.591Z,12.7
2017-12-20T11:43:13.375Z,12.7
2017-12-20T11:44:15.866Z,12.7
2017-12-20T11:45:18.376Z,12.7
2017-12-20T11:46:20.874Z,12.7
2017-12-20T11:47:23.360Z,12.7
2017-12-20T11:48:25.852Z,12.7
2017-12-20T11:49:28.632Z,12.7
2017-12-20T11:50:31.132Z,12.7
2017-12-20T11:51:33.624Z,12.7
2017-12-20T11:52:36.417Z,12.7
2017-12-20T11:53:38.917Z,12.7
2017-12-20T11:54:41.748Z,12.7
2017-12-20T11:55:44.239Z,12.7
2017-12-20T11:56:46.740Z,12.7
2017-12-20T11:57:49.233Z,12.7
2017-12-20T11:58:51.746Z,12.7
2017-12-20T11:59:54.532Z,12.7
2017-12-20T12:00:57.028Z,12.8
2017-12-20T12:01:59.519Z,12.8
2017-12-20T12:03:02.020Z,12.7
2017-12-20T12:04:04.510Z,12.7
2017-12-20T12:05:07.014Z,12.7
2017-12-20T12:06:09.500Z,12.7
2017-12-20T12:07:12.295Z,12.7
2017-12-20T12:08:14.788Z,12.6
2017-12-20T12:09:17.282Z,12.7
2017-12-20T12:10:19.782Z,12.6
2017-12-20T12:11:22.273Z,12.6
2017-12-20T12:12:24.759Z,12.7
2017-12-20T12:13:27.278Z,12.6
2017-12-20T12:14:29.773Z,12.6
2017-12-20T12:15:32.262Z,12.6
2017-12-20T12:16:34.757Z,12.6
2017-12-20T12:17:37.546Z,12.6
2017-12-20T12:18:40.046Z,12.6
2017-12-20T12:19:42.544Z,12.6
2017-12-20T12:20:45.047Z,12.6
2017-12-20T12:21:47.537Z,12.5
2017-12-20T12:22:50.047Z,12.5
2017-12-20T12:23:52.543Z,12.6
2017-12-20T12:24:55.039Z,12.6
2017-12-20T12:25:57.535Z,12.6
2017-12-20T12:27:00.024Z,12.7
2017-12-20T12:28:02.524Z,12.7
2017-12-20T12:29:05.024Z,12.7
2017-12-20T12:30:07.802Z,12.7
2017-12-20T12:31:10.300Z,12.7
2017-12-20T12:32:12.803Z,12.7
2017-12-20T12:33:15.292Z,12.8
2017-12-20T12:34:17.795Z,12.7
2017-12-20T12:35:20.876Z,12.7
2017-12-20T12:36:23.364Z,12.7
2017-12-20T12:37:26.175Z,12.7
2017-12-20T12:38:28.670Z,12.7
2017-12-20T12:39:31.167Z,12.7
2017-12-20T12:40:33.666Z,12.7
2017-12-20T12:41:36.175Z,12.7
2017-12-20T12:42:38.958Z,12.7
2017-12-20T12:43:41.451Z,12.8
2017-12-20T12:44:43.959Z,12.8
2017-12-20T12:45:46.761Z,12.8
2017-12-20T12:46:49.240Z,12.8
2017-12-20T12:47:51.747Z,12.8
2017-12-20T12:48:54.236Z,12.7
2017-12-20T12:49:56.739Z,12.7
2017-12-20T12:50:59.540Z,12.7
2017-12-20T12:52:02.032Z,12.7
2017-12-20T12:53:04.521Z,12.7
2017-12-20T12:54:07.031Z,12.7
2017-12-20T12:55:09.520Z,12.7
2017-12-20T12:56:12.013Z,12.7
2017-12-20T12:57:14.510Z,12.7
2017-12-20T12:58:16.996Z,12.7
2017-12-20T12:59:19.502Z,12.8
2017-12-20T13:00:21.994Z,12.8
2017-12-20T13:01:24.478Z,12.8
2017-12-20T13:02:26.982Z,12.8
2017-12-20T13:03:29.473Z,12.8
2017-12-20T13:04:32.550Z,12.8
2017-12-20T13:05:35.041Z,12.8
2017-12-20T13:06:37.529Z,12.7
2017-12-20T13:07:40.326Z,12.7
2017-12-20T13:08:42.838Z,12.7
2017-12-20T13:09:45.613Z,12.7
2017-12-20T13:10:48.106Z,12.7
2017-12-20T13:11:50.598Z,12.7
2017-12-20T13:12:53.100Z,12.6
2017-12-20T13:13:55.600Z,12.7
2017-12-20T13:14:58.385Z,12.7
2017-12-20T13:16:01.165Z,12.7
2017-12-20T13:17:03.666Z,12.7
2017-12-20T13:18:06.442Z,12.7
2017-12-20T13:19:08.937Z,12.8
2017-12-20T13:20:11.454Z,12.8
2017-12-20T13:21:13.930Z,12.8
2017-12-20T13:22:16.439Z,12.8
2017-12-20T13:23:18.930Z,12.9
2017-12-20T13:24:21.429Z,12.9
2017-12-20T13:25:23.930Z,13
2017-12-20T13:26:26.428Z,13
2017-12-20T13:27:28.911Z,13
2017-12-20T13:28:31.403Z,13
2017-12-20T13:29:33.898Z,13
2017-12-20T13:30:36.686Z,13
2017-12-20T13:31:39.186Z,13
2017-12-20T13:32:41.667Z,13
2017-12-20T13:33:44.163Z,13
2017-12-20T13:34:46.675Z,13
2017-12-20T13:35:49.163Z,13
2017-12-20T13:36:51.672Z,13.1
2017-12-20T13:37:54.165Z,13.1
2017-12-20T13:38:56.668Z,13.1
2017-12-20T13:39:59.168Z,13.1
2017-12-20T13:42:25.949Z,13
2017-12-20T13:43:28.436Z,13
2017-12-20T13:44:30.932Z,12.8
2017-12-20T13:45:33.422Z,12.8
2017-12-20T13:46:35.910Z,12.7
2017-12-20T13:47:38.400Z,12.6
2017-12-20T13:48:40.918Z,12.6
2017-12-20T13:49:43.396Z,12.6
2017-12-20T13:50:45.899Z,12.5
2017-12-20T13:51:48.391Z,12.5
2017-12-20T13:52:50.885Z,12.5
2017-12-20T13:53:53.383Z,12.5
2017-12-20T13:54:55.887Z,12.5
2017-12-20T13:55:58.381Z,12.5
2017-12-20T13:57:01.186Z,12.5
2017-12-20T13:58:03.671Z,12.5
2017-12-20T13:59:06.181Z,12.5
2017-12-20T14:00:09.609Z,12.5
2017-12-20T14:01:12.118Z,12.6
2017-12-20T14:02:14.605Z,12.6
2017-12-20T14:03:17.106Z,12.6
2017-12-20T14:04:19.601Z,12.6
2017-12-20T14:05:22.094Z,12.6
2017-12-20T14:06:24.586Z,12.6
2017-12-20T14:07:27.078Z,12.6
2017-12-20T14:08:29.566Z,12.6
2017-12-20T14:09:32.366Z,12.6
2017-12-20T14:10:34.861Z,12.6
2017-12-20T14:11:37.357Z,12.7
2017-12-20T14:12:39.848Z,12.7
2017-12-20T14:13:42.635Z,12.7
2017-12-20T14:14:45.111Z,12.7
2017-12-20T14:15:47.610Z,12.6
2017-12-20T14:16:50.111Z,12.6